Time;durP1;ratioP1;P1;durP2;ratioP2;P2;SDS_P1;SDS_P2;PMS_P1;PMS_P2;Temp;Humidity;BMP_temperature;BMP_pressure;BME280_temperature;BME280_humidity;BME280_pressure;Samples;Min_cycle;Max_cycle;Signal;HPM_P1;HPM_P2
2023/04/17 00:00:07;;;;;;;7.67;4.50;;;;;;;9.02;90.16;92724.97;515465;28;1035;-47
2023/04/17 00:00:22;;;;;;;7.75;4.47;;;;;;;9.04;89.69;92721.66;513797;28;943;-49
2023/04/17 00:00:38;;;;;;;7.60;4.70;;;;;;;9.05;90.02;92715.56;513757;28;880;-48
2023/04/17 00:00:53;;;;;;;7.43;4.63;;;;;;;9.05;89.72;92725.88;513800;28;770;-48
2023/04/17 00:01:08;;;;;;;5.82;4.60;;;;;;;9.08;89.91;92722.00;514024;28;892;-49
2023/04/17 00:01:24;;;;;;;6.63;4.63;;;;;;;9.11;89.83;92718.88;513764;28;845;-48
2023/04/17 00:01:39;;;;;;;7.97;4.60;;;;;;;9.14;89.50;92717.75;514002;28;1069;-47
2023/04/17 00:01:55;;;;;;;7.90;4.63;;;;;;;9.16;89.28;92714.44;513813;28;845;-49
2023/04/17 00:02:10;;;;;;;7.10;5.05;;;;;;;9.12;89.02;92711.31;515867;28;956;-49
2023/04/17 00:02:28;;;;;;;7.83;5.50;;;;;;;9.12;89.06;92719.59;514369;28;832;-48
2023/04/17 00:02:45;;;;;;;9.02;5.20;;;;;;;9.14;88.85;92714.25;515180;28;1072;-48
2023/04/17 00:03:00;;;;;;;8.63;5.03;;;;;;;9.17;88.94;92713.16;515758;28;1230;-48
2023/04/17 00:03:16;;;;;;;7.70;4.65;;;;;;;9.20;88.79;92717.56;513598;28;1654;-49
2023/04/17 00:03:31;;;;;;;6.13;4.40;;;;;;;9.25;88.81;92713.84;514184;28;1246;-48
2023/04/17 00:03:47;;;;;;;7.78;4.57;;;;;;;9.28;88.55;92721.00;514027;28;1407;-47
2023/04/17 00:04:03;;;;;;;8.03;4.73;;;;;;;9.32;88.40;92721.34;515444;28;969;-48
2023/04/17 00:04:20;;;;;;;6.30;4.78;;;;;;;9.32;87.93;92720.59;514602;28;904;-48
2023/04/17 00:04:37;;;;;;;9.75;5.00;;;;;;;9.23;87.93;92712.94;513758;28;907;-48
2023/04/17 00:04:52;;;;;;;11.65;5.47;;;;;;;9.27;87.71;92718.81;514303;28;1329;-48
2023/04/17 00:05:08;;;;;;;12.20;5.97;;;;;;;9.28;87.95;92715.50;515916;28;1082;-48
2023/04/17 00:05:25;;;;;;;13.40;6.33;;;;;;;9.32;87.97;92720.59;515665;28;1003;-48
2023/04/17 00:05:42;;;;;;;12.15;6.60;;;;;;;9.33;87.77;92722.09;515773;28;912;-48
2023/04/17 00:05:57;;;;;;;12.10;7.57;;;;;;;9.35;87.76;92711.97;516045;28;904;-47
2023/04/17 00:06:15;;;;;;;13.13;8.93;;;;;;;9.27;87.58;92703.00;515756;28;798;-48
2023/04/17 00:06:32;;;;;;;13.57;9.18;;;;;;;9.36;87.46;92716.19;514925;28;1739;-49
2023/04/17 00:06:48;;;;;;;14.13;9.15;;;;;;;9.39;87.62;92714.34;513683;28;886;-49
2023/04/17 00:07:04;;;;;;;13.53;9.80;;;;;;;9.40;87.76;92715.81;514577;28;1161;-48
2023/04/17 00:07:21;;;;;;;14.38;10.60;;;;;;;9.40;87.46;92715.81;513787;28;1093;-48
2023/04/17 00:07:40;;;;;;;16.05;10.93;;;;;;;9.42;87.45;92718.75;513803;28;892;-48
2023/04/17 00:07:55;;;;;;;17.15;11.18;;;;;;;9.43;87.48;92723.69;513891;28;922;-49
2023/04/17 00:08:11;;;;;;;17.55;11.13;;;;;;;9.42;87.66;92719.44;515931;28;887;-48
2023/04/17 00:08:26;;;;;;;17.13;10.47;;;;;;;9.36;87.32;92720.94;515669;28;1089;-49
2023/04/17 00:08:42;;;;;;;15.88;9.50;;;;;;;9.28;87.77;92720.25;514408;28;959;-49
2023/04/17 00:08:57;;;;;;;15.70;9.77;;;;;;;9.26;87.98;92711.81;514414;28;1965;-49
2023/04/17 00:09:13;;;;;;;16.73;10.65;;;;;;;9.28;88.14;92714.75;515229;28;1703;-47
2023/04/17 00:09:29;;;;;;;15.93;10.77;;;;;;;9.29;88.11;92716.94;513743;28;829;-48
2023/04/17 00:09:44;;;;;;;15.27;10.65;;;;;;;9.32;88.49;92715.09;513700;28;900;-47
2023/04/17 00:10:00;;;;;;;14.80;10.45;;;;;;;9.32;88.09;92721.34;514876;28;1080;-48
2023/04/17 00:10:15;;;;;;;15.63;10.53;;;;;;;9.34;88.19;92718.03;515703;28;1174;-47
2023/04/17 00:10:31;;;;;;;16.37;11.17;;;;;;;9.36;88.42;92718.19;515702;28;1057;-49
2023/04/17 00:10:46;;;;;;;17.23;11.57;;;;;;;9.38;87.89;92721.13;515603;28;821;-48
2023/04/17 00:11:01;;;;;;;17.17;11.77;;;;;;;9.40;87.90;92722.03;514987;28;1048;-48
2023/04/17 00:11:17;;;;;;;17.50;11.50;;;;;;;9.43;87.56;92722.94;513616;28;860;-48
2023/04/17 00:11:32;;;;;;;16.85;11.25;;;;;;;9.45;87.32;92720.34;513775;28;1084;-48
2023/04/17 00:11:47;;;;;;;17.20;10.97;;;;;;;9.47;87.17;92715.03;515517;28;790;-49
2023/04/17 00:12:03;;;;;;;16.00;10.43;;;;;;;9.42;86.63;92710.47;516069;28;1091;-48
2023/04/17 00:12:18;;;;;;;17.43;11.43;;;;;;;9.48;86.47;92722.00;517471;28;857;-49
2023/04/17 00:12:34;;;;;;;17.52;11.35;;;;;;;9.48;86.43;92717.25;517671;28;884;-47
2023/04/17 00:12:50;;;;;;;14.63;10.30;;;;;;;9.47;86.13;92720.53;517558;28;991;-49
2023/04/17 00:13:05;;;;;;;17.02;10.43;;;;;;;9.36;86.11;92716.19;516417;28;1028;-49
2023/04/17 00:13:21;;;;;;;17.40;10.53;;;;;;;9.35;85.91;92725.00;516454;28;1214;-49
2023/04/17 00:13:36;;;;;;;17.92;10.80;;;;;;;9.27;85.91;92714.00;517621;28;898;-50
2023/04/17 00:13:51;;;;;;;19.60;11.70;;;;;;;9.24;85.94;92717.16;516261;28;1706;-49
2023/04/17 00:14:07;;;;;;;16.90;11.70;;;;;;;9.22;86.18;92723.25;515325;28;797;-50
2023/04/17 00:14:22;;;;;;;17.10;12.00;;;;;;;9.18;86.05;92715.34;513752;28;892;-50
2023/04/17 00:14:38;;;;;;;17.58;12.40;;;;;;;9.16;86.43;92717.19;514727;28;1007;-51
2023/04/17 00:14:53;;;;;;;17.37;12.13;;;;;;;9.13;85.92;92719.06;514908;28;1501;-50
2023/04/17 00:15:09;;;;;;;16.93;11.07;;;;;;;9.00;86.04;92721.28;514524;28;782;-50
2023/04/17 00:15:24;;;;;;;13.30;9.50;;;;;;;8.96;86.22;92716.19;513814;28;838;-48
2023/04/17 00:15:40;;;;;;;12.65;9.57;;;;;;;8.96;86.36;92724.44;513741;28;1134;-48
2023/04/17 00:15:55;;;;;;;13.53;10.47;;;;;;;8.99;86.71;92715.06;513900;28;852;-49
2023/04/17 00:16:12;;;;;;;13.47;10.30;;;;;;;9.03;86.62;92717.44;515778;28;1126;-48
2023/04/17 00:16:27;;;;;;;15.43;10.43;;;;;;;9.05;86.41;92718.31;515762;28;811;-49
2023/04/17 00:16:43;;;;;;;13.57;9.97;;;;;;;9.07;86.44;92712.28;515714;28;892;-49
2023/04/17 00:16:58;;;;;;;13.82;10.07;;;;;;;9.09;86.24;92721.47;516113;28;817;-48
2023/04/17 00:17:13;;;;;;;15.30;10.87;;;;;;;9.11;86.14;92713.38;513823;28;801;-49
2023/04/17 00:17:29;;;;;;;13.67;10.73;;;;;;;9.12;86.25;92714.09;513753;28;1319;-48
2023/04/17 00:17:44;;;;;;;14.20;10.40;;;;;;;9.05;85.95;92720.38;515426;28;1096;-49
2023/04/17 00:18:00;;;;;;;17.70;11.03;;;;;;;9.01;86.08;92715.22;516098;28;745;-47
2023/04/17 00:18:15;;;;;;;18.42;11.43;;;;;;;8.70;86.02;92680.13;515803;28;798;-49
2023/04/17 00:18:30;;;;;;;17.80;11.67;;;;;;;8.96;86.25;92716.19;514926;28;1683;-48
2023/04/17 00:18:46;;;;;;;17.20;11.90;;;;;;;8.81;86.21;92698.97;513657;28;1093;-49
2023/04/17 00:19:01;;;;;;;15.32;11.57;;;;;;;8.92;86.40;92724.06;514767;28;1163;-49
2023/04/17 00:19:17;;;;;;;15.47;10.83;;;;;;;8.93;86.64;92720.03;515545;28;2368;-50
2023/04/17 00:19:32;;;;;;;15.07;10.82;;;;;;;8.91;86.52;92717.09;515760;28;851;-48
2023/04/17 00:19:49;;;;;;;14.67;11.30;;;;;;;8.81;86.83;92718.97;515623;28;1263;-49
2023/04/17 00:20:11;;;;;;;16.27;11.45;;;;;;;8.71;87.13;92723.56;516500;28;1138;-49
2023/04/17 00:20:26;;;;;;;15.15;10.68;;;;;;;8.73;87.59;92718.25;515745;28;974;-48
2023/04/17 00:20:42;;;;;;;13.63;10.30;;;;;;;8.73;87.46;92721.00;515602;28;1127;-49
2023/04/17 00:20:57;;;;;;;12.27;9.98;;;;;;;8.74;87.64;92725.22;515820;28;1564;-49
2023/04/17 00:21:12;;;;;;;15.97;10.07;;;;;;;8.75;87.39;92721.19;514655;28;842;-48
2023/04/17 00:21:31;;;;;;;17.13;10.23;;;;;;;8.79;87.70;92720.81;513618;28;896;-50
2023/04/17 00:21:46;;;;;;;16.30;10.63;;;;;;;8.82;87.31;92720.44;514724;28;955;-48
2023/04/17 00:22:01;;;;;;;15.53;11.10;;;;;;;8.85;87.25;92719.34;515812;28;1119;-49
2023/04/17 00:22:17;;;;;;;16.53;11.67;;;;;;;8.81;87.28;92715.50;515540;28;1177;-49
2023/04/17 00:22:32;;;;;;;16.08;12.23;;;;;;;8.69;87.40;92719.91;515581;28;1186;-48
2023/04/17 00:22:48;;;;;;;13.37;11.97;;;;;;;8.50;87.87;92712.06;515559;28;1127;-49
2023/04/17 00:23:03;;;;;;;14.30;11.25;;;;;;;8.49;88.07;92721.59;516085;28;806;-48
2023/04/17 00:23:19;;;;;;;15.40;10.67;;;;;;;8.46;88.57;92721.97;514825;28;836;-48
2023/04/17 00:23:34;;;;;;;14.27;9.38;;;;;;;8.48;88.79;92725.66;514075;28;1115;-48
2023/04/17 00:23:49;;;;;;;14.83;9.57;;;;;;;8.50;89.06;92708.59;515344;28;1616;-49
2023/04/17 00:24:05;;;;;;;13.93;10.13;;;;;;;8.47;89.20;92718.66;515848;28;860;-49
2023/04/17 00:24:20;;;;;;;12.85;9.27;;;;;;;8.45;89.18;92720.50;515770;28;827;-48
2023/04/17 00:24:36;;;;;;;13.23;9.20;;;;;;;8.46;88.97;92713.72;515784;28;813;-49
2023/04/17 00:24:51;;;;;;;12.73;9.77;;;;;;;8.46;89.21;92719.97;515385;28;1141;-48
2023/04/17 00:25:09;;;;;;;13.13;9.40;;;;;;;8.45;89.16;92718.50;515562;28;1035;-48
2023/04/17 00:25:24;;;;;;;14.13;8.93;;;;;;;8.46;89.58;92719.22;515793;28;914;-48
2023/04/17 00:25:40;;;;;;;13.40;9.03;;;;;;;8.40;89.43;92705.69;515733;28;794;-49
2023/04/17 00:25:55;;;;;;;13.13;9.47;;;;;;;8.47;89.48;92713.16;515634;28;844;-49
2023/04/17 00:26:11;;;;;;;12.00;9.20;;;;;;;8.45;89.74;92724.00;515976;28;841;-49
2023/04/17 00:26:27;;;;;;;11.80;8.85;;;;;;;8.00;89.83;92669.75;515423;28;1419;-48
2023/04/17 00:26:43;;;;;;;10.57;8.48;;;;;;;8.29;89.73;92723.28;515635;28;1249;-48
2023/04/17 00:27:00;;;;;;;9.25;7.70;;;;;;;8.18;90.22;92717.41;516126;28;868;-48
2023/04/17 00:27:15;;;;;;;11.23;8.20;;;;;;;8.13;90.32;92718.31;515802;28;906;-49
2023/04/17 00:27:31;;;;;;;12.30;8.10;;;;;;;8.18;90.77;92720.16;515708;28;1197;-49
2023/04/17 00:27:46;;;;;;;14.77;8.23;;;;;;;8.22;90.89;92715.00;515781;28;824;-49
2023/04/17 00:28:01;;;;;;;15.47;8.60;;;;;;;8.24;91.04;92710.44;515954;28;1060;-48
2023/04/17 00:28:17;;;;;;;13.57;8.23;;;;;;;8.26;90.95;92715.41;515397;28;1151;-49
2023/04/17 00:28:32;;;;;;;13.00;8.20;;;;;;;8.34;90.81;92718.88;514139;28;939;-50
2023/04/17 00:28:49;;;;;;;15.47;8.23;;;;;;;8.30;90.88;92721.25;514099;28;930;-48
2023/04/17 00:29:04;;;;;;;15.13;7.90;;;;;;;8.30;90.83;92721.25;515642;28;1918;-49
2023/04/17 00:29:20;;;;;;;11.20;7.17;;;;;;;8.24;90.75;92715.94;516112;28;1089;-49
2023/04/17 00:29:36;;;;;;;10.97;7.10;;;;;;;8.23;90.65;92724.72;516163;28;888;-49
2023/04/17 00:29:51;;;;;;;13.43;7.45;;;;;;;8.17;90.98;92722.16;515930;28;1143;-49
2023/04/17 00:30:07;;;;;;;13.40;7.57;;;;;;;8.19;91.03;92722.34;516548;28;800;-48
2023/04/17 00:30:23;;;;;;;11.00;7.47;;;;;;;8.23;90.95;92717.19;515939;28;1171;-49
2023/04/17 00:30:38;;;;;;;12.30;7.70;;;;;;;8.23;90.93;92719.22;515935;28;908;-48
2023/04/17 00:30:53;;;;;;;11.05;7.47;;;;;;;8.23;91.16;92716.47;514972;28;1556;-49
2023/04/17 00:31:09;;;;;;;8.77;7.00;;;;;;;8.09;91.02;92704.94;515429;28;888;-48
2023/04/17 00:31:24;;;;;;;9.57;7.35;;;;;;;8.28;90.98;92721.06;515021;28;1502;-48
2023/04/17 00:31:40;;;;;;;10.20;7.43;;;;;;;8.33;90.81;92720.91;513922;28;900;-49
2023/04/17 00:31:55;;;;;;;10.23;6.87;;;;;;;8.38;90.78;92716.50;514110;28;831;-48
2023/04/17 00:32:10;;;;;;;11.07;6.70;;;;;;;8.42;90.47;92721.63;516238;28;789;-48
2023/04/17 00:32:26;;;;;;;11.00;6.87;;;;;;;8.42;90.29;92722.38;516210;28;837;-48
2023/04/17 00:32:41;;;;;;;12.83;7.30;;;;;;;8.32;90.32;92702.19;517038;28;1242;-48
2023/04/17 00:32:57;;;;;;;13.20;7.40;;;;;;;8.39;90.06;92720.69;518092;28;1352;-48
2023/04/17 00:33:12;;;;;;;11.87;7.23;;;;;;;8.41;90.01;92720.88;514583;28;1654;-48
2023/04/17 00:33:27;;;;;;;11.18;6.97;;;;;;;8.40;89.79;92725.66;515866;28;1741;-48
2023/04/17 00:33:43;;;;;;;9.17;6.83;;;;;;;8.42;89.68;92721.63;514122;28;956;-49
2023/04/17 00:34:00;;;;;;;10.37;6.80;;;;;;;8.43;89.65;92723.81;516287;28;936;-49
2023/04/17 00:34:15;;;;;;;10.95;6.72;;;;;;;8.46;89.53;92722.72;515882;28;900;-48
2023/04/17 00:34:30;;;;;;;9.75;6.70;;;;;;;8.45;89.37;92724.00;516005;28;853;-50
2023/04/17 00:34:46;;;;;;;8.80;6.70;;;;;;;8.38;89.35;92724.75;516018;28;848;-48
2023/04/17 00:35:01;;;;;;;9.07;6.87;;;;;;;8.35;89.39;92725.84;516191;28;866;-48
2023/04/17 00:35:16;;;;;;;11.68;7.00;;;;;;;8.33;89.58;92720.16;516033;28;821;-49
2023/04/17 00:35:32;;;;;;;10.80;6.90;;;;;;;8.32;89.37;92721.44;516018;28;841;-48
2023/04/17 00:35:47;;;;;;;11.52;6.95;;;;;;;8.36;89.52;92721.78;515941;28;937;-48
2023/04/17 00:36:03;;;;;;;11.50;6.87;;;;;;;8.38;89.65;92722.72;515466;28;769;-48
2023/04/17 00:36:18;;;;;;;9.27;6.82;;;;;;;8.37;89.26;92717.78;514097;28;790;-48
2023/04/17 00:36:34;;;;;;;11.07;6.60;;;;;;;8.44;89.42;92728.03;514144;28;860;-49
2023/04/17 00:36:49;;;;;;;10.83;5.87;;;;;;;8.40;88.95;92725.66;514091;28;1021;-49
2023/04/17 00:37:04;;;;;;;9.25;5.82;;;;;;;8.32;88.75;92729.69;513759;28;1619;-50
2023/04/17 00:37:20;;;;;;;8.93;6.37;;;;;;;8.29;88.78;92728.78;515177;28;982;-49
2023/04/17 00:37:35;;;;;;;7.57;5.87;;;;;;;8.27;88.98;92730.63;514462;28;820;-48
2023/04/17 00:37:51;;;;;;;6.57;5.32;;;;;;;8.27;89.10;92716.88;514122;28;856;-50
2023/04/17 00:38:08;;;;;;;7.47;5.70;;;;;;;8.27;88.70;92723.09;515241;28;1152;-50
2023/04/17 00:38:23;;;;;;;9.48;5.75;;;;;;;8.30;88.84;92727.50;516120;28;949;-49
2023/04/17 00:38:39;;;;;;;9.98;5.65;;;;;;;8.28;89.13;92723.81;516018;28;856;-49
2023/04/17 00:38:54;;;;;;;10.67;6.03;;;;;;;8.31;89.04;92717.97;514112;28;1747;-48
2023/04/17 00:39:09;;;;;;;11.57;5.95;;;;;;;8.37;88.98;92728.78;514698;28;774;-49
2023/04/17 00:39:25;;;;;;;9.50;5.50;;;;;;;8.35;88.98;92723.84;514219;28;770;-48
2023/04/17 00:39:40;;;;;;;7.30;5.40;;;;;;;8.28;88.89;92715.56;514139;28;969;-49
2023/04/17 00:39:56;;;;;;;9.52;5.60;;;;;;;8.28;88.66;92724.56;514487;28;808;-48
2023/04/17 00:40:11;;;;;;;9.43;5.73;;;;;;;8.25;88.84;92720.16;516231;28;870;-49
2023/04/17 00:40:27;;;;;;;8.10;5.40;;;;;;;8.23;88.85;92727.47;515917;28;722;-49
2023/04/17 00:40:44;;;;;;;11.27;5.83;;;;;;;8.21;88.77;92724.53;515930;28;805;-48
2023/04/17 00:41:00;;;;;;;10.57;5.93;;;;;;;8.23;89.04;92728.19;514249;28;898;-48
2023/04/17 00:41:15;;;;;;;10.70;5.55;;;;;;;8.22;88.71;92723.25;514023;28;818;-48
2023/04/17 00:41:30;;;;;;;13.07;5.72;;;;;;;8.22;88.80;92726.75;513877;28;1621;-48
2023/04/17 00:41:46;;;;;;;11.37;5.70;;;;;;;8.08;88.69;92699.97;513942;28;789;-49
2023/04/17 00:42:01;;;;;;;8.83;5.47;;;;;;;8.28;89.12;92724.56;513904;28;774;-49
2023/04/17 00:42:17;;;;;;;6.93;5.28;;;;;;;8.33;89.01;92725.66;516016;28;1721;-47
2023/04/17 00:42:32;;;;;;;8.63;5.10;;;;;;;8.36;88.83;92716.28;517658;28;808;-49
2023/04/17 00:42:51;;;;;;;9.05;5.25;;;;;;;8.38;88.62;92719.25;515882;28;919;-50
2023/04/17 00:43:07;;;;;;;7.18;5.35;;;;;;;8.44;88.43;92719.78;516038;28;836;-49
2023/04/17 00:43:22;;;;;;;13.87;5.60;;;;;;;8.36;88.67;92727.31;515936;28;984;-50
2023/04/17 00:43:38;;;;;;;12.35;5.70;;;;;;;8.33;88.45;92726.41;515987;28;903;-50
2023/04/17 00:43:53;;;;;;;6.73;4.97;;;;;;;8.28;88.59;92718.31;515945;28;821;-49
2023/04/17 00:44:09;;;;;;;9.65;4.90;;;;;;;8.28;88.61;92721.06;515929;28;1598;-49
2023/04/17 00:44:25;;;;;;;9.63;5.30;;;;;;;8.30;88.66;92724.00;515971;28;903;-49
2023/04/17 00:44:40;;;;;;;6.87;5.10;;;;;;;8.21;88.67;92706.03;515930;28;1218;-50
2023/04/17 00:44:56;;;;;;;6.25;4.82;;;;;;;8.37;88.51;92726.03;517934;28;1237;-49
2023/04/17 00:45:11;;;;;;;8.03;5.23;;;;;;;8.43;88.32;92721.06;516114;28;1622;-48
2023/04/17 00:45:27;;;;;;;9.00;5.18;;;;;;;8.48;88.52;92722.16;516226;28;1029;-49
2023/04/17 00:45:45;;;;;;;8.20;4.97;;;;;;;8.53;87.96;92726.75;516131;28;817;-50
2023/04/17 00:46:01;;;;;;;8.40;5.22;;;;;;;8.57;87.64;92725.09;515483;28;1079;-49
2023/04/17 00:46:16;;;;;;;7.55;5.10;;;;;;;8.52;87.74;92714.25;515253;28;1680;-50
2023/04/17 00:46:31;;;;;;;6.50;4.90;;;;;;;8.63;87.64;92725.63;517585;28;1198;-49
2023/04/17 00:46:47;;;;;;;7.38;5.10;;;;;;;8.64;87.66;92729.81;517820;28;1265;-51
2023/04/17 00:47:02;;;;;;;9.27;4.90;;;;;;;8.56;87.41;92709.84;517298;28;820;-51
2023/04/17 00:47:18;;;;;;;9.10;4.85;;;;;;;8.66;87.69;92721.03;513954;28;913;-48
2023/04/17 00:47:33;;;;;;;8.57;5.13;;;;;;;8.69;87.51;92720.66;512016;29;940;-50
2023/04/17 00:47:49;;;;;;;8.68;5.10;;;;;;;8.71;87.48;92726.31;511504;29;1099;-49
2023/04/17 00:48:06;;;;;;;9.23;5.20;;;;;;;8.74;87.43;92725.22;511935;29;879;-48
2023/04/17 00:48:23;;;;;;;8.18;5.00;;;;;;;8.77;87.33;92717.91;511850;28;1086;-49
2023/04/17 00:48:39;;;;;;;6.40;4.68;;;;;;;8.79;86.88;92720.81;513416;28;1282;-50
2023/04/17 00:48:55;;;;;;;9.32;4.65;;;;;;;8.82;86.53;92728.69;512487;28;1758;-51
2023/04/17 00:49:10;;;;;;;8.77;4.83;;;;;;;8.78;86.27;92716.59;512764;28;975;-49
2023/04/17 00:49:26;;;;;;;9.70;5.47;;;;;;;8.67;86.04;92703.97;513879;28;1140;-49
2023/04/17 00:49:41;;;;;;;10.33;5.63;;;;;;;8.85;85.93;92724.09;514013;28;785;-49
2023/04/17 00:49:57;;;;;;;10.65;4.95;;;;;;;8.86;85.88;92725.56;514196;28;861;-49
2023/04/17 00:50:12;;;;;;;9.80;4.50;;;;;;;8.84;85.48;92726.13;514841;28;884;-49
2023/04/17 00:50:28;;;;;;;8.07;4.60;;;;;;;8.86;85.73;92723.53;514009;28;900;-50
2023/04/17 00:50:44;;;;;;;7.32;4.85;;;;;;;8.87;85.59;92722.25;513921;28;798;-49
2023/04/17 00:51:02;;;;;;;6.00;4.80;;;;;;;8.87;85.35;92722.25;513960;28;1152;-49
2023/04/17 00:51:18;;;;;;;5.82;4.78;;;;;;;8.85;85.57;92724.84;514004;28;877;-50
2023/04/17 00:51:34;;;;;;;6.27;5.03;;;;;;;8.79;86.15;92723.56;513738;28;1692;-49
2023/04/17 00:51:49;;;;;;;7.38;4.97;;;;;;;8.67;86.61;92720.47;513839;28;1570;-49
2023/04/17 00:52:05;;;;;;;7.77;5.30;;;;;;;8.57;86.99;92725.09;514240;28;877;-48
2023/04/17 00:52:28;;;;;;;7.22;5.43;;;;;;;8.57;87.32;92722.34;514731;28;886;-49
2023/04/17 00:52:44;;;;;;;7.55;5.13;;;;;;;8.60;87.81;92723.25;517028;28;1629;-49
2023/04/17 00:53:00;;;;;;;8.83;5.10;;;;;;;8.54;87.57;92706.94;515625;28;853;-49
2023/04/17 00:53:16;;;;;;;7.47;5.15;;;;;;;8.60;87.57;92710.22;513948;28;893;-50
2023/04/17 00:53:32;;;;;;;6.22;5.15;;;;;;;8.71;87.41;92720.09;513888;28;916;-49
2023/04/17 00:53:47;;;;;;;6.22;4.65;;;;;;;8.74;87.38;92727.97;513764;28;1446;-49
2023/04/17 00:54:03;;;;;;;7.53;4.80;;;;;;;8.75;87.13;92723.94;512144;28;1400;-49
2023/04/17 00:54:19;;;;;;;9.57;5.03;;;;;;;8.75;87.25;92723.94;513437;28;1715;-50
2023/04/17 00:54:34;;;;;;;13.15;5.10;;;;;;;8.76;86.95;92721.91;513965;28;853;-50
2023/04/17 00:54:50;;;;;;;13.20;5.30;;;;;;;8.75;86.87;92723.94;512520;28;1549;-51
2023/04/17 00:55:06;;;;;;;10.27;5.40;;;;;;;8.78;86.80;92720.09;514286;28;1194;-49
2023/04/17 00:55:22;;;;;;;8.52;4.93;;;;;;;8.78;86.72;92722.84;513857;28;943;-50
2023/04/17 00:55:38;;;;;;;9.85;4.75;;;;;;;8.79;86.65;92716.03;512009;29;1187;-49
2023/04/17 00:55:54;;;;;;;10.52;5.57;;;;;;;8.80;86.71;92717.50;512650;28;880;-49
2023/04/17 00:56:09;;;;;;;8.10;5.70;;;;;;;8.82;86.29;92719.69;512241;28;872;-49
2023/04/17 00:56:25;;;;;;;8.37;5.60;;;;;;;8.84;86.28;92717.13;511990;29;879;-50
2023/04/17 00:56:41;;;;;;;8.30;5.68;;;;;;;8.86;86.36;92720.03;510457;29;1620;-49
2023/04/17 00:56:57;;;;;;;8.15;5.30;;;;;;;8.90;86.32;92725.94;510038;29;1773;-50
2023/04/17 00:57:13;;;;;;;7.85;5.07;;;;;;;8.92;86.01;92717.84;508020;29;1549;-49
2023/04/17 00:57:28;;;;;;;7.47;4.90;;;;;;;8.94;85.98;92718.72;509255;29;1105;-50
2023/04/17 00:57:44;;;;;;;7.32;4.60;;;;;;;8.96;85.97;92721.69;509928;29;861;-50
2023/04/17 00:58:00;;;;;;;8.63;4.93;;;;;;;8.85;85.87;92702.81;508898;29;828;-49
2023/04/17 00:58:15;;;;;;;9.45;5.55;;;;;;;8.93;85.57;92717.28;510078;29;853;-49
2023/04/17 00:58:32;;;;;;;7.53;5.50;;;;;;;8.90;85.88;92718.38;510460;29;869;-50
2023/04/17 00:58:47;;;;;;;7.68;5.07;;;;;;;8.89;85.93;92711.44;511915;29;904;-49
2023/04/17 00:59:04;;;;;;;9.05;5.03;;;;;;;8.85;85.88;92719.34;512214;28;881;-50
2023/04/17 00:59:20;;;;;;;8.35;5.50;;;;;;;8.84;85.86;92715.09;512028;29;845;-49
2023/04/17 00:59:38;;;;;;;7.38;5.35;;;;;;;8.84;85.56;92714.38;511967;29;852;-50
2023/04/17 00:59:54;;;;;;;7.70;5.22;;;;;;;8.80;85.75;92712.00;512843;28;1589;-50
2023/04/17 01:00:10;;;;;;;7.82;4.93;;;;;;;8.77;85.67;92718.59;513187;28;937;-49
2023/04/17 01:00:25;;;;;;;8.27;5.00;;;;;;;8.43;85.58;92679.81;514032;28;845;-50
2023/04/17 01:00:41;;;;;;;9.50;5.53;;;;;;;8.65;85.91;92717.53;511890;29;1549;-50
2023/04/17 01:00:56;;;;;;;12.02;5.57;;;;;;;8.58;85.69;92717.53;512395;28;1511;-50
2023/04/17 01:01:12;;;;;;;13.57;5.57;;;;;;;8.49;85.88;92710.59;513849;28;884;-49
2023/04/17 01:01:27;;;;;;;10.70;5.30;;;;;;;8.41;86.12;92723.63;513939;28;778;-49
2023/04/17 01:01:43;;;;;;;9.33;5.20;;;;;;;8.32;86.69;92719.44;513902;28;803;-49
2023/04/17 01:01:58;;;;;;;8.73;5.32;;;;;;;8.26;86.82;92718.88;514638;28;983;-50
2023/04/17 01:02:15;;;;;;;8.60;5.20;;;;;;;8.19;86.88;92718.84;515933;28;923;-50
2023/04/17 01:02:31;;;;;;;7.57;5.30;;;;;;;8.13;87.47;92715.56;515924;28;873;-50
2023/04/17 01:02:46;;;;;;;7.63;5.18;;;;;;;8.02;87.67;92716.66;516038;28;1334;-50
2023/04/17 01:03:02;;;;;;;9.23;5.32;;;;;;;7.96;87.96;92715.38;515331;28;1138;-49
2023/04/17 01:03:18;;;;;;;7.70;5.67;;;;;;;7.95;88.40;92713.94;514093;28;964;-50
2023/04/17 01:03:34;;;;;;;7.57;6.07;;;;;;;7.97;88.43;92723.06;514082;28;866;-51
2023/04/17 01:03:50;;;;;;;8.70;6.05;;;;;;;8.01;88.64;92717.22;514039;28;972;-50
2023/04/17 01:04:05;;;;;;;9.25;5.65;;;;;;;7.97;88.73;92714.81;514152;28;2209;-50
2023/04/17 01:04:21;;;;;;;8.70;5.30;;;;;;;7.90;88.61;92712.81;511732;28;1838;-49
2023/04/17 01:04:36;;;;;;;8.53;5.27;;;;;;;7.86;88.72;92719.97;511836;29;862;-50
2023/04/17 01:04:51;;;;;;;9.03;5.40;;;;;;;7.88;88.75;92720.16;511944;29;838;-50
2023/04/17 01:05:07;;;;;;;8.07;5.25;;;;;;;7.90;88.98;92714.84;512287;28;814;-50
2023/04/17 01:05:24;;;;;;;9.13;5.47;;;;;;;7.87;88.84;92719.41;511927;29;892;-50
2023/04/17 01:05:40;;;;;;;9.27;5.38;;;;;;;7.91;88.84;92719.03;512568;28;889;-50
2023/04/17 01:05:56;;;;;;;8.73;5.10;;;;;;;7.95;88.71;92719.44;512681;28;1259;-52
2023/04/17 01:06:11;;;;;;;7.07;4.95;;;;;;;7.92;88.67;92709.53;514491;28;815;-50
2023/04/17 01:06:27;;;;;;;6.80;5.10;;;;;;;7.96;88.28;92716.13;515702;28;1696;-50
2023/04/17 01:06:42;;;;;;;8.50;5.53;;;;;;;7.94;88.38;92712.44;512646;28;908;-49
2023/04/17 01:06:59;;;;;;;10.37;5.27;;;;;;;7.90;88.33;92717.59;512708;28;900;-50
2023/04/17 01:07:14;;;;;;;11.05;5.15;;;;;;;7.84;88.32;92720.50;513422;28;1103;-49
2023/04/17 01:07:30;;;;;;;10.10;5.57;;;;;;;7.84;88.29;92715.00;512533;28;876;-50
2023/04/17 01:07:45;;;;;;;7.88;5.57;;;;;;;7.82;88.43;92709.31;513833;28;914;-51
2023/04/17 01:08:00;;;;;;;6.70;5.37;;;;;;;7.78;88.52;92705.47;514748;28;829;-51
2023/04/17 01:08:19;;;;;;;8.80;5.60;;;;;;;7.75;88.84;92710.06;516043;28;878;-51
2023/04/17 01:08:41;;;;;;;10.57;5.93;;;;;;;7.73;88.92;92709.16;515800;28;1121;-50
2023/04/17 01:08:57;;;;;;;11.23;6.10;;;;;;;7.70;89.13;92713.72;514534;28;1981;-51
2023/04/17 01:09:13;;;;;;;12.13;7.00;;;;;;;7.56;89.29;92693.19;513776;28;1692;-49
2023/04/17 01:09:29;;;;;;;13.32;9.00;;;;;;;7.62;89.55;92708.19;516151;28;851;-51
2023/04/17 01:09:44;;;;;;;14.40;10.15;;;;;;;7.60;89.65;92712.78;515953;28;1610;-50
2023/04/17 01:10:00;;;;;;;14.10;10.17;;;;;;;7.54;89.90;92707.47;516483;28;844;-51
2023/04/17 01:10:15;;;;;;;14.93;10.20;;;;;;;7.48;90.16;92709.66;515530;28;1419;-51
2023/04/17 01:10:30;;;;;;;18.63;9.90;;;;;;;7.42;90.41;92709.09;516051;28;891;-50
2023/04/17 01:10:46;;;;;;;18.70;9.27;;;;;;;7.41;90.91;92710.38;516063;28;1560;-49
2023/04/17 01:11:01;;;;;;;13.48;7.80;;;;;;;7.39;90.88;92718.41;516321;28;904;-49
2023/04/17 01:11:16;;;;;;;13.33;7.97;;;;;;;7.35;91.13;92711.81;516092;28;815;-49
2023/04/17 01:11:32;;;;;;;15.40;9.60;;;;;;;7.26;91.19;92709.59;516155;28;892;-49
2023/04/17 01:11:47;;;;;;;15.98;10.05;;;;;;;7.34;91.37;92710.38;515669;28;1639;-49
2023/04/17 01:12:20;;;;;;;15.90;10.30;;;;;;;7.48;91.55;92712.41;515423;28;1648;-49
2023/04/17 01:12:35;;;;;;;14.60;8.65;;;;;;;7.56;91.37;92713.13;515791;28;1294;-48
2023/04/17 01:13:02;;;;;;;13.53;7.67;;;;;;;7.61;91.09;92704.00;514075;28;818;-49
2023/04/17 01:13:17;;;;;;;13.68;7.65;;;;;;;7.76;90.91;92708.03;516445;28;1173;-48
2023/04/17 01:13:33;;;;;;;12.03;7.50;;;;;;;7.83;90.81;92707.31;514158;28;896;-48
2023/04/17 01:13:49;;;;;;;11.70;7.50;;;;;;;7.90;90.45;92709.34;514091;28;786;-49
2023/04/17 01:14:05;;;;;;;12.60;7.60;;;;;;;7.94;90.21;92712.44;515711;28;902;-49
2023/04/17 01:14:20;;;;;;;12.50;7.47;;;;;;;7.99;89.69;92709.50;516143;28;797;-49
2023/04/17 01:14:35;;;;;;;11.90;7.63;;;;;;;8.01;89.46;92706.22;516070;28;773;-48
2023/04/17 01:14:53;;;;;;;10.93;7.90;;;;;;;8.02;89.47;92711.16;515961;28;1186;-48
2023/04/17 01:15:09;;;;;;;12.70;7.55;;;;;;;7.99;89.39;92712.25;516297;28;825;-49
2023/04/17 01:15:25;;;;;;;13.27;7.20;;;;;;;7.98;89.35;92707.31;516138;28;1676;-49
2023/04/17 01:15:41;;;;;;;10.70;7.00;;;;;;;8.01;89.27;92717.22;514263;28;2688;-49
2023/04/17 01:15:57;;;;;;;9.90;6.80;;;;;;;7.96;89.16;92704.38;514748;28;828;-48
2023/04/17 01:16:12;;;;;;;8.47;6.93;;;;;;;7.92;88.93;92706.78;513964;28;1330;-48
2023/04/17 01:16:29;;;;;;;9.80;6.85;;;;;;;7.89;89.05;92711.34;514158;28;1637;-48
2023/04/17 01:16:45;;;;;;;10.68;7.10;;;;;;;7.88;89.12;92709.91;514510;28;826;-49
2023/04/17 01:17:01;;;;;;;12.10;7.33;;;;;;;7.90;88.91;92710.06;515132;28;979;-49
2023/04/17 01:17:18;;;;;;;14.48;7.38;;;;;;;7.94;88.98;92712.44;516069;28;1658;-49